»·PEaware :: USC243 KMRY-KLAS

USC243 :: KMRY-KLAS

FLIGHT INFORMATION

Flight Status: Arrived
Operator: Unknown
More flights by this operator :: More flights under this callsign
Pilot: Andy P. (22680)
Aircraft: GATES LEARJET LEARJET 35/36
(LJ35)
More flights by this aircraft type
Origin: KMRY Monterey Peninsula
United States
Destination: KLAS McCarran Intl
United States
More flights between these airports :: More routes between these airports
Route: +TORO7 PXN NTELL PPARK BTY SUNST4
File this flight plan on PilotEdge
Remarks:
Altitude:
(Current/Filed)
35,000ft
Speed:
(Current/Filed)
465kts
Departed: 20-Jul-19 09:26 AM
Arrived: 20-Jul-19 10:22 AM
Distance/Time
Traveled:
326nm/0:55
Distance/Time
To Go:
Arrived

Flight Plot

Page will automatically refresh every two minutes.

Flight plan parsing failed; only flown route is shown


Map Options




Map Legend


Flown Route
Filed Route
Departure Airport
Arrival Airport
Navaid (VOR, NDB)
Fix

Horizontal Profiles

Position Reports

Time Latitude Longitude Heading Altitude Ground
Speed
20-Jul-19 09:09 36.589256 -121.858558 345 208ft 0kts
20-Jul-19 09:10 36.589256 -121.858558 345 208ft 0kts
20-Jul-19 09:11 36.589256 -121.858558 345 208ft 0kts
20-Jul-19 09:12 36.589256 -121.858558 345 208ft 0kts
20-Jul-19 09:13 36.589256 -121.858558 345 208ft 0kts
20-Jul-19 09:14 36.589256 -121.858558 345 208ft 0kts
20-Jul-19 09:15 36.589256 -121.858558 345 208ft 0kts
20-Jul-19 09:16 36.589256 -121.858558 345 208ft 0kts
20-Jul-19 09:17 36.589256 -121.858558 345 208ft 0kts
20-Jul-19 09:18 36.589256 -121.858558 345 208ft 0kts
20-Jul-19 09:19 36.589256 -121.858558 345 208ft 0kts
20-Jul-19 09:20 36.589256 -121.858558 345 208ft 0kts
20-Jul-19 09:21 36.589256 -121.858558 345 208ft 0kts
20-Jul-19 09:22 36.589256 -121.858558 345 208ft 0kts
20-Jul-19 09:23 36.589530 -121.857597 102 208ft 8kts
20-Jul-19 09:24 36.590152 -121.856608 303 208ft 7kts
20-Jul-19 09:25 36.589261 -121.850970 112 208ft 113kts
20-Jul-19 09:26 36.584614 -121.775692 75 2695ft 295kts
20-Jul-19 09:27 36.604564 -121.683166 77 7996ft 240kts
20-Jul-19 09:28 36.614028 -121.587313 83 12504ft 315kts
20-Jul-19 09:29 36.631083 -121.470287 80 17421ft 371kts
20-Jul-19 09:30 36.647907 -121.336761 82 22045ft 401kts
20-Jul-19 09:31 36.665324 -121.191603 81 25384ft 438kts
20-Jul-19 09:32 36.684070 -121.039524 81 28599ft 450kts
20-Jul-19 09:33 36.702733 -120.885042 82 31631ft 447kts
20-Jul-19 09:34 36.725213 -120.732976 76 34363ft 447kts
20-Jul-19 09:35 36.757474 -120.579044 76 35006ft 471kts
20-Jul-19 09:36 36.790532 -120.420613 76 34979ft 471kts
20-Jul-19 09:37 36.823303 -120.262513 76 34979ft 470kts
20-Jul-19 09:38 36.855818 -120.104519 76 34979ft 470kts
20-Jul-19 09:39 36.888012 -119.946513 77 34979ft 469kts
20-Jul-19 09:40 36.889984 -119.785063 98 34980ft 465kts
20-Jul-19 09:41 36.875388 -119.624440 98 34981ft 466kts
20-Jul-19 09:42 36.860426 -119.464111 98 34981ft 466kts
20-Jul-19 09:44 36.845137 -119.303103 98 34998ft 466kts
20-Jul-19 09:45 36.829640 -119.142342 98 35016ft 466kts
20-Jul-19 09:46 36.813958 -118.981985 98 35060ft 466kts
20-Jul-19 09:47 36.798013 -118.821238 98 35007ft 468kts
20-Jul-19 09:48 36.783026 -118.660380 95 35092ft 467kts
20-Jul-19 09:49 36.783084 -118.498021 90 35093ft 469kts
20-Jul-19 09:50 36.785819 -118.335013 90 35092ft 470kts
20-Jul-19 09:51 36.788326 -118.171417 90 35040ft 472kts
20-Jul-19 09:52 36.790606 -118.007923 90 35041ft 472kts
20-Jul-19 09:53 36.792663 -117.844128 90 35041ft 473kts
20-Jul-19 09:54 36.794503 -117.679993 90 34310ft 468kts
20-Jul-19 09:55 36.796088 -117.518348 90 32456ft 463kts
20-Jul-19 09:56 36.797433 -117.359169 89 30691ft 453kts
20-Jul-19 09:57 36.798543 -117.203263 89 28977ft 448kts
20-Jul-19 09:58 36.799445 -117.048303 89 27267ft 444kts
20-Jul-19 09:59 36.800141 -116.894784 89 25575ft 439kts
20-Jul-19 10:00 36.788232 -116.744940 112 24136ft 435kts
20-Jul-19 10:01 36.714910 -116.626510 131 24044ft 426kts
20-Jul-19 10:02 36.632005 -116.507331 132 24049ft 475kts
20-Jul-19 10:03 36.549521 -116.390230 132 22915ft 415kts
20-Jul-19 10:04 36.474794 -116.284689 132 21307ft 411kts
20-Jul-19 10:04 36.412052 -116.196278 133 20052ft 393kts
20-Jul-19 10:05 36.343908 -116.100549 133 18739ft 352kts
20-Jul-19 10:07 36.270743 -115.998097 134 17333ft 330kts
20-Jul-19 10:07 36.220106 -115.927376 134 16363ft 328kts
20-Jul-19 10:08 36.177575 -115.828263 113 15306ft 324kts
20-Jul-19 10:09 36.145055 -115.727162 114 14345ft 309kts
20-Jul-19 10:10 36.113678 -115.629875 114 13416ft 298kts
20-Jul-19 10:11 36.085245 -115.541984 114 12579ft 280kts
20-Jul-19 10:12 36.056063 -115.452085 113 11729ft 282kts
20-Jul-19 10:13 36.030109 -115.360583 99 10849ft 287kts
20-Jul-19 10:14 36.023000 -115.263313 97 9699ft 276kts
20-Jul-19 10:15 36.016421 -115.171334 96 8720ft 261kts
20-Jul-19 10:16 36.012036 -115.083388 91 7162ft 252kts
20-Jul-19 10:17 36.020200 -114.999891 52 5229ft 227kts
20-Jul-19 10:18 36.070873 -115.001596 295 4147ft 189kts
20-Jul-19 10:19 36.073858 -115.057458 270 3142ft 139kts
20-Jul-19 10:20 36.073758 -115.105284 268 2526ft 139kts
20-Jul-19 10:21 36.073659 -115.141955 268 2184ft 39kts
20-Jul-19 10:22 36.074740 -115.145986 302 2184ft 0kts
20-Jul-19 10:23 36.076253 -115.146496 5 2184ft 18kts
20-Jul-19 10:24 36.078324 -115.144091 94 2184ft 18kts
20-Jul-19 10:25 36.078289 -115.134161 91 2184ft 31kts
20-Jul-19 10:26 36.080152 -115.126386 358 2184ft 22kts
20-Jul-19 10:27 36.082948 -115.125523 189 2184ft 0kts
20-Jul-19 10:28 36.082948 -115.125523 189 2184ft 0kts

Navigation Log

Ident Type
Flight plan parsing failed, navigation log unavailable